sensor_id;sensor_type;location;lat;lon;timestamp;P1;durP1;ratioP1;P2;durP2;ratioP2
5285;SDS011;2665;53.112;7.358;2022-08-19T00:02:04;2.97;;;1.87;;
5285;SDS011;2665;53.112;7.358;2022-08-19T00:04:32;4.57;;;1.07;;
5285;SDS011;2665;53.112;7.358;2022-08-19T00:06:59;2.77;;;1.67;;
5285;SDS011;2665;53.112;7.358;2022-08-19T00:09:26;3.60;;;1.50;;
5285;SDS011;2665;53.112;7.358;2022-08-19T00:11:53;3.10;;;1.93;;
5285;SDS011;2665;53.112;7.358;2022-08-19T00:14:20;2.87;;;1.73;;
5285;SDS011;2665;53.112;7.358;2022-08-19T00:16:47;6.87;;;3.13;;
5285;SDS011;2665;53.112;7.358;2022-08-19T00:19:14;6.70;;;2.70;;
5285;SDS011;2665;53.112;7.358;2022-08-19T00:21:40;4.87;;;2.70;;
5285;SDS011;2665;53.112;7.358;2022-08-19T00:24:10;3.20;;;1.53;;
5285;SDS011;2665;53.112;7.358;2022-08-19T00:26:36;2.53;;;1.53;;
5285;SDS011;2665;53.112;7.358;2022-08-19T00:29:04;2.93;;;2.10;;
5285;SDS011;2665;53.112;7.358;2022-08-19T00:31:30;2.97;;;1.77;;
5285;SDS011;2665;53.112;7.358;2022-08-19T00:33:56;3.20;;;1.60;;
5285;SDS011;2665;53.112;7.358;2022-08-19T00:36:23;2.57;;;1.37;;
5285;SDS011;2665;53.112;7.358;2022-08-19T00:38:49;2.07;;;0.80;;
5285;SDS011;2665;53.112;7.358;2022-08-19T00:41:17;2.20;;;0.90;;
5285;SDS011;2665;53.112;7.358;2022-08-19T00:43:56;2.03;;;0.80;;
5285;SDS011;2665;53.112;7.358;2022-08-19T00:46:23;2.20;;;0.80;;
5285;SDS011;2665;53.112;7.358;2022-08-19T00:48:49;3.10;;;1.50;;
5285;SDS011;2665;53.112;7.358;2022-08-19T00:51:15;2.93;;;1.70;;
5285;SDS011;2665;53.112;7.358;2022-08-19T00:53:41;3.53;;;2.17;;
5285;SDS011;2665;53.112;7.358;2022-08-19T00:56:08;3.30;;;2.10;;
5285;SDS011;2665;53.112;7.358;2022-08-19T00:58:34;3.10;;;1.70;;
5285;SDS011;2665;53.112;7.358;2022-08-19T01:01:02;2.50;;;1.60;;
5285;SDS011;2665;53.112;7.358;2022-08-19T01:03:29;3.67;;;2.30;;
5285;SDS011;2665;53.112;7.358;2022-08-19T01:05:55;4.60;;;1.50;;
5285;SDS011;2665;53.112;7.358;2022-08-19T01:08:21;2.40;;;1.30;;
5285;SDS011;2665;53.112;7.358;2022-08-19T01:10:48;2.40;;;1.20;;
5285;SDS011;2665;53.112;7.358;2022-08-19T01:13:16;2.60;;;1.30;;
5285;SDS011;2665;53.112;7.358;2022-08-19T01:15:47;2.40;;;1.30;;
5285;SDS011;2665;53.112;7.358;2022-08-19T01:18:15;3.13;;;1.53;;
5285;SDS011;2665;53.112;7.358;2022-08-19T01:20:42;2.63;;;1.30;;
5285;SDS011;2665;53.112;7.358;2022-08-19T01:23:08;2.10;;;1.17;;
5285;SDS011;2665;53.112;7.358;2022-08-19T01:25:45;2.70;;;1.27;;
5285;SDS011;2665;53.112;7.358;2022-08-19T01:28:25;2.33;;;1.20;;
5285;SDS011;2665;53.112;7.358;2022-08-19T01:30:52;2.43;;;0.97;;
5285;SDS011;2665;53.112;7.358;2022-08-19T01:33:18;2.00;;;1.00;;
5285;SDS011;2665;53.112;7.358;2022-08-19T01:35:45;3.53;;;1.20;;
5285;SDS011;2665;53.112;7.358;2022-08-19T01:38:23;3.40;;;1.20;;
5285;SDS011;2665;53.112;7.358;2022-08-19T01:40:49;2.47;;;1.30;;
5285;SDS011;2665;53.112;7.358;2022-08-19T01:43:15;3.30;;;1.57;;
5285;SDS011;2665;53.112;7.358;2022-08-19T01:45:44;2.60;;;1.30;;
5285;SDS011;2665;53.112;7.358;2022-08-19T01:48:10;2.50;;;1.20;;
5285;SDS011;2665;53.112;7.358;2022-08-19T01:50:36;2.33;;;1.40;;
5285;SDS011;2665;53.112;7.358;2022-08-19T01:53:03;2.73;;;1.40;;
5285;SDS011;2665;53.112;7.358;2022-08-19T01:55:29;2.70;;;1.57;;
5285;SDS011;2665;53.112;7.358;2022-08-19T01:57:58;2.70;;;1.30;;
5285;SDS011;2665;53.112;7.358;2022-08-19T02:00:26;6.30;;;1.50;;
5285;SDS011;2665;53.112;7.358;2022-08-19T02:02:53;2.73;;;1.40;;
5285;SDS011;2665;53.112;7.358;2022-08-19T02:05:19;3.63;;;1.50;;
5285;SDS011;2665;53.112;7.358;2022-08-19T02:07:46;2.40;;;1.60;;
5285;SDS011;2665;53.112;7.358;2022-08-19T02:10:14;2.53;;;1.37;;
5285;SDS011;2665;53.112;7.358;2022-08-19T02:12:41;2.70;;;1.50;;
5285;SDS011;2665;53.112;7.358;2022-08-19T02:15:07;2.73;;;1.47;;
5285;SDS011;2665;53.112;7.358;2022-08-19T02:17:33;3.40;;;1.40;;
5285;SDS011;2665;53.112;7.358;2022-08-19T02:19:59;2.50;;;1.63;;
5285;SDS011;2665;53.112;7.358;2022-08-19T02:22:26;3.50;;;2.20;;
5285;SDS011;2665;53.112;7.358;2022-08-19T02:24:52;6.33;;;2.37;;
5285;SDS011;2665;53.112;7.358;2022-08-19T02:27:18;3.80;;;2.33;;
5285;SDS011;2665;53.112;7.358;2022-08-19T02:29:48;6.37;;;2.33;;
5285;SDS011;2665;53.112;7.358;2022-08-19T02:32:15;5.03;;;2.10;;
5285;SDS011;2665;53.112;7.358;2022-08-19T02:34:43;3.63;;;1.80;;
5285;SDS011;2665;53.112;7.358;2022-08-19T02:37:09;5.00;;;1.70;;
5285;SDS011;2665;53.112;7.358;2022-08-19T02:39:55;3.47;;;1.73;;
5285;SDS011;2665;53.112;7.358;2022-08-19T02:42:21;3.27;;;1.90;;
5285;SDS011;2665;53.112;7.358;2022-08-19T02:44:47;6.13;;;2.30;;
5285;SDS011;2665;53.112;7.358;2022-08-19T02:47:14;3.50;;;1.87;;
5285;SDS011;2665;53.112;7.358;2022-08-19T02:49:40;3.40;;;1.93;;
5285;SDS011;2665;53.112;7.358;2022-08-19T02:52:06;3.63;;;2.20;;
5285;SDS011;2665;53.112;7.358;2022-08-19T02:54:32;3.10;;;1.93;;
5285;SDS011;2665;53.112;7.358;2022-08-19T02:56:58;3.50;;;1.80;;
5285;SDS011;2665;53.112;7.358;2022-08-19T02:59:24;11.70;;;2.13;;
5285;SDS011;2665;53.112;7.358;2022-08-19T03:01:51;5.90;;;2.27;;
5285;SDS011;2665;53.112;7.358;2022-08-19T03:04:17;5.57;;;1.80;;
5285;SDS011;2665;53.112;7.358;2022-08-19T03:06:45;4.43;;;1.90;;
5285;SDS011;2665;53.112;7.358;2022-08-19T03:09:11;3.10;;;1.93;;
5285;SDS011;2665;53.112;7.358;2022-08-19T03:11:38;3.07;;;2.00;;
5285;SDS011;2665;53.112;7.358;2022-08-19T03:14:05;3.50;;;1.80;;
5285;SDS011;2665;53.112;7.358;2022-08-19T03:16:33;4.50;;;1.90;;
5285;SDS011;2665;53.112;7.358;2022-08-19T03:19:00;4.03;;;1.93;;
5285;SDS011;2665;53.112;7.358;2022-08-19T03:21:27;8.03;;;2.20;;
5285;SDS011;2665;53.112;7.358;2022-08-19T03:23:54;9.67;;;2.00;;
5285;SDS011;2665;53.112;7.358;2022-08-19T03:26:20;4.97;;;1.90;;
5285;SDS011;2665;53.112;7.358;2022-08-19T03:28:46;3.93;;;1.87;;
5285;SDS011;2665;53.112;7.358;2022-08-19T03:31:14;3.60;;;2.00;;
5285;SDS011;2665;53.112;7.358;2022-08-19T03:33:41;3.00;;;1.77;;
5285;SDS011;2665;53.112;7.358;2022-08-19T03:38:34;7.93;;;2.20;;
5285;SDS011;2665;53.112;7.358;2022-08-19T03:41:08;2.93;;;1.80;;
5285;SDS011;2665;53.112;7.358;2022-08-19T03:43:35;2.87;;;2.03;;
5285;SDS011;2665;53.112;7.358;2022-08-19T03:46:03;2.67;;;1.97;;
5285;SDS011;2665;53.112;7.358;2022-08-19T03:48:30;4.17;;;1.80;;
5285;SDS011;2665;53.112;7.358;2022-08-19T03:50:56;12.00;;;2.27;;
5285;SDS011;2665;53.112;7.358;2022-08-19T03:53:23;4.90;;;1.83;;
5285;SDS011;2665;53.112;7.358;2022-08-19T03:55:50;8.00;;;2.43;;
5285;SDS011;2665;53.112;7.358;2022-08-19T03:58:17;2.90;;;1.80;;
5285;SDS011;2665;53.112;7.358;2022-08-19T04:00:44;2.73;;;1.70;;
5285;SDS011;2665;53.112;7.358;2022-08-19T04:03:10;3.10;;;1.90;;
5285;SDS011;2665;53.112;7.358;2022-08-19T04:05:36;2.97;;;1.77;;
5285;SDS011;2665;53.112;7.358;2022-08-19T04:08:03;4.00;;;1.27;;
5285;SDS011;2665;53.112;7.358;2022-08-19T04:10:30;3.27;;;2.00;;
5285;SDS011;2665;53.112;7.358;2022-08-19T04:12:56;2.60;;;1.73;;
5285;SDS011;2665;53.112;7.358;2022-08-19T04:15:22;3.20;;;1.80;;
5285;SDS011;2665;53.112;7.358;2022-08-19T04:17:48;3.33;;;2.03;;
5285;SDS011;2665;53.112;7.358;2022-08-19T04:20:14;3.27;;;1.70;;
5285;SDS011;2665;53.112;7.358;2022-08-19T04:22:40;2.73;;;1.63;;
5285;SDS011;2665;53.112;7.358;2022-08-19T04:25:06;3.37;;;2.07;;
5285;SDS011;2665;53.112;7.358;2022-08-19T04:27:33;3.40;;;1.80;;
5285;SDS011;2665;53.112;7.358;2022-08-19T04:29:59;5.30;;;1.93;;
5285;SDS011;2665;53.112;7.358;2022-08-19T04:32:25;4.00;;;1.90;;
5285;SDS011;2665;53.112;7.358;2022-08-19T04:34:51;3.90;;;1.60;;
5285;SDS011;2665;53.112;7.358;2022-08-19T04:37:18;4.47;;;2.20;;
5285;SDS011;2665;53.112;7.358;2022-08-19T04:39:44;2.60;;;1.67;;
5285;SDS011;2665;53.112;7.358;2022-08-19T04:42:28;3.40;;;1.70;;
5285;SDS011;2665;53.112;7.358;2022-08-19T04:45:07;3.23;;;2.20;;
5285;SDS011;2665;53.112;7.358;2022-08-19T04:47:35;2.67;;;1.60;;
5285;SDS011;2665;53.112;7.358;2022-08-19T04:50:02;2.67;;;1.53;;
5285;SDS011;2665;53.112;7.358;2022-08-19T04:52:28;4.67;;;2.00;;
5285;SDS011;2665;53.112;7.358;2022-08-19T04:54:56;9.83;;;1.90;;
5285;SDS011;2665;53.112;7.358;2022-08-19T04:57:23;8.27;;;1.87;;
5285;SDS011;2665;53.112;7.358;2022-08-19T04:59:49;4.40;;;1.80;;
5285;SDS011;2665;53.112;7.358;2022-08-19T05:02:19;6.27;;;1.93;;
5285;SDS011;2665;53.112;7.358;2022-08-19T05:04:45;6.30;;;1.50;;
5285;SDS011;2665;53.112;7.358;2022-08-19T05:07:11;5.03;;;2.13;;
5285;SDS011;2665;53.112;7.358;2022-08-19T05:09:37;3.63;;;2.13;;
5285;SDS011;2665;53.112;7.358;2022-08-19T05:12:03;4.10;;;2.60;;
5285;SDS011;2665;53.112;7.358;2022-08-19T05:14:30;3.50;;;2.30;;
5285;SDS011;2665;53.112;7.358;2022-08-19T05:16:56;4.43;;;2.43;;
5285;SDS011;2665;53.112;7.358;2022-08-19T05:19:22;4.07;;;2.47;;
5285;SDS011;2665;53.112;7.358;2022-08-19T05:22:07;3.63;;;2.37;;
5285;SDS011;2665;53.112;7.358;2022-08-19T05:24:52;3.20;;;1.90;;
5285;SDS011;2665;53.112;7.358;2022-08-19T05:27:18;5.33;;;2.03;;
5285;SDS011;2665;53.112;7.358;2022-08-19T05:29:44;3.37;;;2.60;;
5285;SDS011;2665;53.112;7.358;2022-08-19T05:32:10;3.40;;;2.33;;
5285;SDS011;2665;53.112;7.358;2022-08-19T05:34:36;3.37;;;2.23;;
5285;SDS011;2665;53.112;7.358;2022-08-19T05:37:05;5.10;;;2.47;;
5285;SDS011;2665;53.112;7.358;2022-08-19T05:39:33;3.20;;;2.23;;
5285;SDS011;2665;53.112;7.358;2022-08-19T05:42:03;5.00;;;2.33;;
5285;SDS011;2665;53.112;7.358;2022-08-19T05:44:32;3.80;;;2.43;;
5285;SDS011;2665;53.112;7.358;2022-08-19T05:46:59;3.90;;;2.43;;
5285;SDS011;2665;53.112;7.358;2022-08-19T05:49:25;3.70;;;2.80;;
5285;SDS011;2665;53.112;7.358;2022-08-19T05:51:52;3.50;;;2.30;;
5285;SDS011;2665;53.112;7.358;2022-08-19T05:54:19;4.63;;;2.63;;
5285;SDS011;2665;53.112;7.358;2022-08-19T05:56:50;4.50;;;3.10;;
5285;SDS011;2665;53.112;7.358;2022-08-19T05:59:17;6.37;;;3.30;;
5285;SDS011;2665;53.112;7.358;2022-08-19T06:01:46;4.10;;;3.07;;
5285;SDS011;2665;53.112;7.358;2022-08-19T06:04:15;4.90;;;3.60;;
5285;SDS011;2665;53.112;7.358;2022-08-19T06:06:43;4.37;;;2.60;;
5285;SDS011;2665;53.112;7.358;2022-08-19T06:09:09;3.67;;;2.67;;
5285;SDS011;2665;53.112;7.358;2022-08-19T06:11:39;4.10;;;3.00;;
5285;SDS011;2665;53.112;7.358;2022-08-19T06:14:10;4.63;;;2.80;;
5285;SDS011;2665;53.112;7.358;2022-08-19T06:16:40;4.33;;;2.80;;
5285;SDS011;2665;53.112;7.358;2022-08-19T06:19:08;4.80;;;3.30;;
5285;SDS011;2665;53.112;7.358;2022-08-19T06:21:35;5.70;;;3.57;;
5285;SDS011;2665;53.112;7.358;2022-08-19T06:24:02;5.27;;;3.30;;
5285;SDS011;2665;53.112;7.358;2022-08-19T06:26:28;4.37;;;3.20;;
5285;SDS011;2665;53.112;7.358;2022-08-19T06:28:55;6.43;;;4.23;;
5285;SDS011;2665;53.112;7.358;2022-08-19T06:31:22;9.33;;;3.40;;
5285;SDS011;2665;53.112;7.358;2022-08-19T06:33:49;4.20;;;3.03;;
5285;SDS011;2665;53.112;7.358;2022-08-19T06:36:25;4.50;;;3.23;;
5285;SDS011;2665;53.112;7.358;2022-08-19T06:38:57;7.40;;;3.90;;
5285;SDS011;2665;53.112;7.358;2022-08-19T06:41:24;8.60;;;4.80;;
5285;SDS011;2665;53.112;7.358;2022-08-19T06:43:50;6.13;;;4.30;;
5285;SDS011;2665;53.112;7.358;2022-08-19T06:46:17;8.60;;;5.23;;
5285;SDS011;2665;53.112;7.358;2022-08-19T06:48:44;6.90;;;4.47;;
5285;SDS011;2665;53.112;7.358;2022-08-19T06:51:11;7.90;;;5.13;;
5285;SDS011;2665;53.112;7.358;2022-08-19T06:53:37;5.83;;;3.90;;
5285;SDS011;2665;53.112;7.358;2022-08-19T06:56:04;11.07;;;5.00;;
5285;SDS011;2665;53.112;7.358;2022-08-19T06:58:30;8.93;;;6.03;;
5285;SDS011;2665;53.112;7.358;2022-08-19T07:01:01;9.47;;;4.23;;
5285;SDS011;2665;53.112;7.358;2022-08-19T07:03:29;9.10;;;5.47;;
5285;SDS011;2665;53.112;7.358;2022-08-19T07:05:55;8.83;;;5.77;;
5285;SDS011;2665;53.112;7.358;2022-08-19T07:08:22;6.60;;;4.23;;
5285;SDS011;2665;53.112;7.358;2022-08-19T07:10:49;7.33;;;5.80;;
5285;SDS011;2665;53.112;7.358;2022-08-19T07:13:15;7.20;;;4.73;;
5285;SDS011;2665;53.112;7.358;2022-08-19T07:15:41;7.20;;;5.37;;
5285;SDS011;2665;53.112;7.358;2022-08-19T07:18:07;6.17;;;4.50;;
5285;SDS011;2665;53.112;7.358;2022-08-19T07:20:33;8.10;;;4.60;;
5285;SDS011;2665;53.112;7.358;2022-08-19T07:23:00;7.70;;;5.27;;
5285;SDS011;2665;53.112;7.358;2022-08-19T07:25:26;8.83;;;5.80;;
5285;SDS011;2665;53.112;7.358;2022-08-19T07:27:53;7.40;;;5.03;;
5285;SDS011;2665;53.112;7.358;2022-08-19T07:30:19;7.10;;;5.00;;
5285;SDS011;2665;53.112;7.358;2022-08-19T07:32:45;8.43;;;5.43;;
5285;SDS011;2665;53.112;7.358;2022-08-19T07:35:11;9.20;;;5.63;;
5285;SDS011;2665;53.112;7.358;2022-08-19T07:37:37;10.73;;;5.00;;
5285;SDS011;2665;53.112;7.358;2022-08-19T07:40:09;7.80;;;4.70;;
5285;SDS011;2665;53.112;7.358;2022-08-19T07:42:36;10.73;;;6.33;;
5285;SDS011;2665;53.112;7.358;2022-08-19T07:45:02;10.47;;;5.80;;
5285;SDS011;2665;53.112;7.358;2022-08-19T07:47:28;9.07;;;5.07;;
5285;SDS011;2665;53.112;7.358;2022-08-19T07:49:55;6.37;;;4.90;;
5285;SDS011;2665;53.112;7.358;2022-08-19T07:52:21;8.27;;;5.20;;
5285;SDS011;2665;53.112;7.358;2022-08-19T07:54:47;8.00;;;5.23;;
5285;SDS011;2665;53.112;7.358;2022-08-19T07:57:14;9.17;;;6.27;;
5285;SDS011;2665;53.112;7.358;2022-08-19T07:59:40;7.87;;;5.70;;
5285;SDS011;2665;53.112;7.358;2022-08-19T08:02:07;9.80;;;7.53;;
5285;SDS011;2665;53.112;7.358;2022-08-19T08:04:33;11.03;;;5.10;;
5285;SDS011;2665;53.112;7.358;2022-08-19T08:07:18;7.40;;;5.40;;
5285;SDS011;2665;53.112;7.358;2022-08-19T08:10:23;8.93;;;5.57;;
5285;SDS011;2665;53.112;7.358;2022-08-19T08:12:49;10.43;;;5.90;;
5285;SDS011;2665;53.112;7.358;2022-08-19T08:15:15;9.07;;;5.60;;
5285;SDS011;2665;53.112;7.358;2022-08-19T08:17:42;13.63;;;5.80;;
5285;SDS011;2665;53.112;7.358;2022-08-19T08:20:09;12.23;;;6.20;;
5285;SDS011;2665;53.112;7.358;2022-08-19T08:22:35;7.43;;;5.43;;
5285;SDS011;2665;53.112;7.358;2022-08-19T08:25:21;9.73;;;6.40;;
5285;SDS011;2665;53.112;7.358;2022-08-19T08:27:47;8.97;;;5.63;;
5285;SDS011;2665;53.112;7.358;2022-08-19T08:30:22;11.10;;;6.03;;
5285;SDS011;2665;53.112;7.358;2022-08-19T08:32:48;9.37;;;5.07;;
5285;SDS011;2665;53.112;7.358;2022-08-19T08:35:16;9.40;;;5.97;;
5285;SDS011;2665;53.112;7.358;2022-08-19T08:37:43;8.00;;;5.60;;
5285;SDS011;2665;53.112;7.358;2022-08-19T08:40:14;6.87;;;5.47;;
5285;SDS011;2665;53.112;7.358;2022-08-19T08:42:45;13.10;;;5.20;;
5285;SDS011;2665;53.112;7.358;2022-08-19T08:45:14;9.43;;;6.10;;
5285;SDS011;2665;53.112;7.358;2022-08-19T08:47:47;7.33;;;5.50;;
5285;SDS011;2665;53.112;7.358;2022-08-19T08:52:43;11.00;;;5.70;;
5285;SDS011;2665;53.112;7.358;2022-08-19T08:55:12;6.20;;;4.63;;
5285;SDS011;2665;53.112;7.358;2022-08-19T08:57:49;8.67;;;4.90;;
5285;SDS011;2665;53.112;7.358;2022-08-19T09:02:51;5.97;;;4.47;;
5285;SDS011;2665;53.112;7.358;2022-08-19T09:05:18;5.93;;;4.37;;
5285;SDS011;2665;53.112;7.358;2022-08-19T09:10:38;6.40;;;3.70;;
5285;SDS011;2665;53.112;7.358;2022-08-19T09:15:38;5.50;;;3.70;;
5285;SDS011;2665;53.112;7.358;2022-08-19T09:18:05;6.07;;;4.30;;
5285;SDS011;2665;53.112;7.358;2022-08-19T09:20:31;6.43;;;3.60;;
5285;SDS011;2665;53.112;7.358;2022-08-19T09:22:57;8.50;;;4.20;;
5285;SDS011;2665;53.112;7.358;2022-08-19T09:25:24;6.50;;;4.30;;
5285;SDS011;2665;53.112;7.358;2022-08-19T09:27:51;5.43;;;3.77;;
5285;SDS011;2665;53.112;7.358;2022-08-19T09:30:28;6.30;;;4.20;;
5285;SDS011;2665;53.112;7.358;2022-08-19T09:32:55;8.30;;;5.20;;
5285;SDS011;2665;53.112;7.358;2022-08-19T09:35:21;4.87;;;3.93;;
5285;SDS011;2665;53.112;7.358;2022-08-19T09:37:48;8.43;;;3.60;;
5285;SDS011;2665;53.112;7.358;2022-08-19T09:40:15;5.37;;;4.23;;
5285;SDS011;2665;53.112;7.358;2022-08-19T09:42:42;5.17;;;3.60;;
5285;SDS011;2665;53.112;7.358;2022-08-19T09:45:08;3.97;;;3.00;;
5285;SDS011;2665;53.112;7.358;2022-08-19T09:47:35;4.80;;;2.93;;
5285;SDS011;2665;53.112;7.358;2022-08-19T09:50:03;4.50;;;2.57;;
5285;SDS011;2665;53.112;7.358;2022-08-19T09:52:30;4.17;;;2.90;;
5285;SDS011;2665;53.112;7.358;2022-08-19T09:54:56;8.90;;;5.53;;
5285;SDS011;2665;53.112;7.358;2022-08-19T09:57:22;4.07;;;2.83;;
5285;SDS011;2665;53.112;7.358;2022-08-19T09:59:48;2.80;;;1.93;;
5285;SDS011;2665;53.112;7.358;2022-08-19T10:02:14;3.93;;;2.20;;
5285;SDS011;2665;53.112;7.358;2022-08-19T10:04:40;3.93;;;1.83;;
5285;SDS011;2665;53.112;7.358;2022-08-19T10:07:25;2.40;;;1.50;;
5285;SDS011;2665;53.112;7.358;2022-08-19T10:09:51;4.20;;;1.70;;
5285;SDS011;2665;53.112;7.358;2022-08-19T10:12:17;2.73;;;1.87;;
5285;SDS011;2665;53.112;7.358;2022-08-19T10:14:43;2.53;;;1.67;;
5285;SDS011;2665;53.112;7.358;2022-08-19T10:17:11;3.70;;;2.50;;
5285;SDS011;2665;53.112;7.358;2022-08-19T10:19:37;2.63;;;1.80;;
5285;SDS011;2665;53.112;7.358;2022-08-19T10:22:04;7.73;;;2.67;;
5285;SDS011;2665;53.112;7.358;2022-08-19T10:24:36;4.50;;;2.60;;
5285;SDS011;2665;53.112;7.358;2022-08-19T10:27:02;3.10;;;2.60;;
5285;SDS011;2665;53.112;7.358;2022-08-19T10:29:31;4.70;;;2.20;;
5285;SDS011;2665;53.112;7.358;2022-08-19T10:32:00;3.17;;;2.03;;
5285;SDS011;2665;53.112;7.358;2022-08-19T10:34:26;4.57;;;2.43;;
5285;SDS011;2665;53.112;7.358;2022-08-19T10:36:53;4.07;;;2.17;;
5285;SDS011;2665;53.112;7.358;2022-08-19T10:39:18;6.63;;;2.33;;
5285;SDS011;2665;53.112;7.358;2022-08-19T10:41:44;3.40;;;2.40;;
5285;SDS011;2665;53.112;7.358;2022-08-19T10:44:10;3.20;;;2.03;;
5285;SDS011;2665;53.112;7.358;2022-08-19T10:46:39;3.00;;;2.13;;
5285;SDS011;2665;53.112;7.358;2022-08-19T10:49:08;4.30;;;2.80;;
5285;SDS011;2665;53.112;7.358;2022-08-19T10:51:34;5.10;;;2.33;;
5285;SDS011;2665;53.112;7.358;2022-08-19T10:54:39;3.90;;;2.17;;
5285;SDS011;2665;53.112;7.358;2022-08-19T10:57:23;4.50;;;2.27;;
5285;SDS011;2665;53.112;7.358;2022-08-19T10:59:54;4.60;;;2.40;;
5285;SDS011;2665;53.112;7.358;2022-08-19T11:02:22;4.60;;;2.40;;
5285;SDS011;2665;53.112;7.358;2022-08-19T11:04:48;2.47;;;1.80;;
5285;SDS011;2665;53.112;7.358;2022-08-19T11:07:15;4.33;;;2.47;;
5285;SDS011;2665;53.112;7.358;2022-08-19T11:09:42;3.13;;;1.80;;
5285;SDS011;2665;53.112;7.358;2022-08-19T11:12:08;3.30;;;2.03;;
5285;SDS011;2665;53.112;7.358;2022-08-19T11:14:35;3.20;;;1.57;;
5285;SDS011;2665;53.112;7.358;2022-08-19T11:17:02;4.73;;;2.10;;
5285;SDS011;2665;53.112;7.358;2022-08-19T11:19:29;2.97;;;2.00;;
5285;SDS011;2665;53.112;7.358;2022-08-19T11:21:55;3.27;;;2.33;;
5285;SDS011;2665;53.112;7.358;2022-08-19T11:24:21;5.80;;;2.00;;
5285;SDS011;2665;53.112;7.358;2022-08-19T11:26:50;3.10;;;1.93;;
5285;SDS011;2665;53.112;7.358;2022-08-19T11:29:21;2.77;;;1.77;;
5285;SDS011;2665;53.112;7.358;2022-08-19T11:31:50;2.83;;;1.73;;
5285;SDS011;2665;53.112;7.358;2022-08-19T11:34:17;3.10;;;2.10;;
5285;SDS011;2665;53.112;7.358;2022-08-19T11:36:45;3.00;;;2.03;;
5285;SDS011;2665;53.112;7.358;2022-08-19T11:39:13;2.57;;;1.50;;
5285;SDS011;2665;53.112;7.358;2022-08-19T11:41:41;3.10;;;1.60;;
5285;SDS011;2665;53.112;7.358;2022-08-19T11:44:07;3.20;;;1.97;;
5285;SDS011;2665;53.112;7.358;2022-08-19T11:46:33;2.10;;;1.30;;
5285;SDS011;2665;53.112;7.358;2022-08-19T11:49:00;2.23;;;1.47;;
5285;SDS011;2665;53.112;7.358;2022-08-19T11:51:28;2.67;;;1.37;;
5285;SDS011;2665;53.112;7.358;2022-08-19T11:53:55;5.10;;;1.57;;
5285;SDS011;2665;53.112;7.358;2022-08-19T11:56:23;2.43;;;1.60;;
5285;SDS011;2665;53.112;7.358;2022-08-19T11:58:50;2.70;;;1.33;;
5285;SDS011;2665;53.112;7.358;2022-08-19T12:01:18;3.33;;;1.87;;
5285;SDS011;2665;53.112;7.358;2022-08-19T12:03:45;3.10;;;1.63;;
5285;SDS011;2665;53.112;7.358;2022-08-19T12:06:14;3.33;;;1.83;;
5285;SDS011;2665;53.112;7.358;2022-08-19T12:08:44;6.53;;;1.70;;
5285;SDS011;2665;53.112;7.358;2022-08-19T12:11:11;2.60;;;1.70;;
5285;SDS011;2665;53.112;7.358;2022-08-19T12:13:38;5.17;;;1.30;;
5285;SDS011;2665;53.112;7.358;2022-08-19T12:16:08;2.33;;;1.70;;
5285;SDS011;2665;53.112;7.358;2022-08-19T12:18:37;2.43;;;1.90;;
5285;SDS011;2665;53.112;7.358;2022-08-19T12:21:04;2.77;;;1.70;;
5285;SDS011;2665;53.112;7.358;2022-08-19T12:23:29;2.93;;;1.90;;
5285;SDS011;2665;53.112;7.358;2022-08-19T12:25:55;2.20;;;1.57;;
5285;SDS011;2665;53.112;7.358;2022-08-19T12:28:22;3.50;;;2.10;;
5285;SDS011;2665;53.112;7.358;2022-08-19T12:30:49;2.80;;;1.70;;
5285;SDS011;2665;53.112;7.358;2022-08-19T12:33:16;3.13;;;1.93;;
5285;SDS011;2665;53.112;7.358;2022-08-19T12:35:43;3.03;;;1.80;;
5285;SDS011;2665;53.112;7.358;2022-08-19T12:38:11;2.60;;;1.77;;
5285;SDS011;2665;53.112;7.358;2022-08-19T12:40:38;2.97;;;2.13;;
5285;SDS011;2665;53.112;7.358;2022-08-19T12:43:05;2.80;;;1.60;;
5285;SDS011;2665;53.112;7.358;2022-08-19T12:45:32;2.47;;;1.67;;
5285;SDS011;2665;53.112;7.358;2022-08-19T12:47:58;4.77;;;1.70;;
5285;SDS011;2665;53.112;7.358;2022-08-19T12:50:24;3.53;;;1.67;;
5285;SDS011;2665;53.112;7.358;2022-08-19T12:52:50;2.20;;;1.70;;
5285;SDS011;2665;53.112;7.358;2022-08-19T12:55:16;2.40;;;1.63;;
5285;SDS011;2665;53.112;7.358;2022-08-19T12:57:43;3.53;;;2.37;;
5285;SDS011;2665;53.112;7.358;2022-08-19T13:00:11;2.50;;;1.67;;
5285;SDS011;2665;53.112;7.358;2022-08-19T13:02:39;3.17;;;2.23;;
5285;SDS011;2665;53.112;7.358;2022-08-19T13:05:07;2.63;;;1.90;;
5285;SDS011;2665;53.112;7.358;2022-08-19T13:07:36;2.43;;;1.70;;
5285;SDS011;2665;53.112;7.358;2022-08-19T13:10:04;2.97;;;1.80;;
5285;SDS011;2665;53.112;7.358;2022-08-19T13:12:31;2.40;;;1.70;;
5285;SDS011;2665;53.112;7.358;2022-08-19T13:14:57;3.97;;;1.90;;
5285;SDS011;2665;53.112;7.358;2022-08-19T13:17:22;3.20;;;1.70;;
5285;SDS011;2665;53.112;7.358;2022-08-19T13:19:48;2.20;;;1.60;;
5285;SDS011;2665;53.112;7.358;2022-08-19T13:22:13;2.50;;;1.90;;
5285;SDS011;2665;53.112;7.358;2022-08-19T13:24:39;3.00;;;2.07;;
5285;SDS011;2665;53.112;7.358;2022-08-19T13:27:05;3.70;;;1.70;;
5285;SDS011;2665;53.112;7.358;2022-08-19T13:29:31;2.57;;;1.80;;
5285;SDS011;2665;53.112;7.358;2022-08-19T13:32:15;2.30;;;1.50;;
5285;SDS011;2665;53.112;7.358;2022-08-19T13:35:00;2.93;;;2.10;;
5285;SDS011;2665;53.112;7.358;2022-08-19T13:37:26;3.57;;;2.00;;
5285;SDS011;2665;53.112;7.358;2022-08-19T13:40:13;2.93;;;2.13;;
5285;SDS011;2665;53.112;7.358;2022-08-19T13:42:43;4.50;;;2.10;;
5285;SDS011;2665;53.112;7.358;2022-08-19T13:45:11;3.60;;;3.00;;
5285;SDS011;2665;53.112;7.358;2022-08-19T13:47:39;3.80;;;2.90;;
5285;SDS011;2665;53.112;7.358;2022-08-19T13:50:08;3.47;;;2.17;;
5285;SDS011;2665;53.112;7.358;2022-08-19T13:52:36;3.47;;;2.60;;
5285;SDS011;2665;53.112;7.358;2022-08-19T13:55:02;2.83;;;1.97;;
5285;SDS011;2665;53.112;7.358;2022-08-19T13:57:29;2.87;;;2.07;;
5285;SDS011;2665;53.112;7.358;2022-08-19T13:59:55;3.50;;;2.23;;
5285;SDS011;2665;53.112;7.358;2022-08-19T14:02:22;5.03;;;2.20;;
5285;SDS011;2665;53.112;7.358;2022-08-19T14:04:49;3.43;;;2.10;;
5285;SDS011;2665;53.112;7.358;2022-08-19T14:07:14;2.90;;;1.90;;
5285;SDS011;2665;53.112;7.358;2022-08-19T14:09:40;3.70;;;2.30;;
5285;SDS011;2665;53.112;7.358;2022-08-19T14:12:05;2.73;;;2.30;;
5285;SDS011;2665;53.112;7.358;2022-08-19T14:14:31;3.93;;;2.80;;
5285;SDS011;2665;53.112;7.358;2022-08-19T14:16:57;4.07;;;2.47;;
5285;SDS011;2665;53.112;7.358;2022-08-19T14:19:23;3.57;;;2.53;;
5285;SDS011;2665;53.112;7.358;2022-08-19T14:21:48;2.70;;;2.10;;
5285;SDS011;2665;53.112;7.358;2022-08-19T14:24:14;3.60;;;2.80;;
5285;SDS011;2665;53.112;7.358;2022-08-19T14:26:40;3.20;;;2.20;;
5285;SDS011;2665;53.112;7.358;2022-08-19T14:29:05;2.77;;;2.10;;
5285;SDS011;2665;53.112;7.358;2022-08-19T14:31:31;3.20;;;2.87;;
5285;SDS011;2665;53.112;7.358;2022-08-19T14:33:56;3.73;;;2.23;;
5285;SDS011;2665;53.112;7.358;2022-08-19T14:36:23;3.87;;;3.03;;
5285;SDS011;2665;53.112;7.358;2022-08-19T14:38:48;5.70;;;2.80;;
5285;SDS011;2665;53.112;7.358;2022-08-19T14:41:20;3.57;;;2.67;;
5285;SDS011;2665;53.112;7.358;2022-08-19T14:43:49;2.87;;;2.17;;
5285;SDS011;2665;53.112;7.358;2022-08-19T14:46:16;4.20;;;2.43;;
5285;SDS011;2665;53.112;7.358;2022-08-19T14:48:45;4.07;;;2.60;;
5285;SDS011;2665;53.112;7.358;2022-08-19T14:51:12;4.33;;;3.00;;
5285;SDS011;2665;53.112;7.358;2022-08-19T14:53:39;5.10;;;4.03;;
5285;SDS011;2665;53.112;7.358;2022-08-19T14:56:09;5.13;;;3.80;;
5285;SDS011;2665;53.112;7.358;2022-08-19T14:58:37;4.20;;;3.40;;
5285;SDS011;2665;53.112;7.358;2022-08-19T15:01:05;3.07;;;2.70;;
5285;SDS011;2665;53.112;7.358;2022-08-19T15:03:31;4.13;;;3.23;;
5285;SDS011;2665;53.112;7.358;2022-08-19T15:05:57;5.40;;;4.30;;
5285;SDS011;2665;53.112;7.358;2022-08-19T15:08:24;5.23;;;3.40;;
5285;SDS011;2665;53.112;7.358;2022-08-19T15:10:50;5.77;;;4.07;;
5285;SDS011;2665;53.112;7.358;2022-08-19T15:13:17;4.33;;;3.70;;
5285;SDS011;2665;53.112;7.358;2022-08-19T15:15:42;4.20;;;3.70;;
5285;SDS011;2665;53.112;7.358;2022-08-19T15:18:08;5.50;;;3.53;;
5285;SDS011;2665;53.112;7.358;2022-08-19T15:20:36;3.67;;;3.20;;
5285;SDS011;2665;53.112;7.358;2022-08-19T15:23:02;5.83;;;4.23;;
5285;SDS011;2665;53.112;7.358;2022-08-19T15:25:28;6.67;;;4.80;;
5285;SDS011;2665;53.112;7.358;2022-08-19T15:27:53;7.30;;;4.90;;
5285;SDS011;2665;53.112;7.358;2022-08-19T15:30:23;8.17;;;5.90;;
5285;SDS011;2665;53.112;7.358;2022-08-19T15:32:50;10.40;;;5.37;;